Time;durP1;ratioP1;P1;durP2;ratioP2;P2;SDS_P1;SDS_P2;PMS_P1;PMS_P2;Temp;Humidity;BMP_temperature;BMP_pressure;BME280_temperature;BME280_humidity;BME280_pressure;Samples;Min_cycle;Max_cycle;Signal;HPM_P1;HPM_P2
2022/01/14 00:01:25;;;;;;;11.30;2.23;;;;;;;;;;5030639;28;20208;-61
2022/01/14 00:03:52;;;;;;;5.17;2.93;;;;;;;;;;5031489;28;20879;-62
2022/01/14 00:06:19;;;;;;;2.90;1.50;;;;;;;;;;5030585;28;20680;-61
2022/01/14 00:08:46;;;;;;;6.30;2.30;;;;;;;;;;5031320;28;20639;-61
2022/01/14 00:11:17;;;;;;;3.23;2.17;;;;;;;;;;5031213;28;20209;-61
2022/01/14 00:13:53;;;;;;;4.67;2.10;;;;;;;;;;5025064;28;20303;-61
2022/01/14 00:16:20;;;;;;;5.37;3.30;;;;;;;;;;5029968;28;20243;-60
2022/01/14 00:18:48;;;;;;;2.73;2.50;;;;;;;;;;5030727;28;20212;-60
2022/01/14 00:21:15;;;;;;;5.77;2.53;;;;;;;;;;5030971;28;20205;-61
2022/01/14 00:23:44;;;;;;;2.47;2.13;;;;;;;;;;5030665;28;20209;-61
2022/01/14 00:31:54;;;;;;;3.80;2.33;;;;;;;;;;5006153;28;20239;-61
2022/01/14 00:34:23;;;;;;;3.93;2.57;;;;;;;;;;5030705;28;20253;-61
2022/01/14 00:36:50;;;;;;;2.47;2.13;;;;;;;;;;5030254;28;20687;-61
2022/01/14 00:39:17;;;;;;;3.47;2.37;;;;;;;;;;5030678;28;20212;-61
2022/01/14 00:41:44;;;;;;;9.17;2.20;;;;;;;;;;5030536;28;20201;-61
2022/01/14 00:44:12;;;;;;;4.37;2.50;;;;;;;;;;5030551;28;20214;-61
2022/01/14 00:46:39;;;;;;;3.43;2.17;;;;;;;;;;5030438;28;20221;-61
2022/01/14 00:49:06;;;;;;;2.47;1.80;;;;;;;;;;5029940;28;20216;-61
2022/01/14 00:51:35;;;;;;;5.57;2.57;;;;;;;;;;5030528;28;20295;-61
2022/01/14 00:54:02;;;;;;;7.03;3.20;;;;;;;;;;5030251;28;20227;-61
2022/01/14 00:56:33;;;;;;;1.60;1.47;;;;;;;;;;5030147;28;20229;-61
2022/01/14 00:59:14;;;;;;;2.40;1.33;;;;;;;;;;5030677;28;20232;-61
2022/01/14 01:01:42;;;;;;;5.93;3.20;;;;;;;;;;5030541;28;20251;-60
2022/01/14 01:04:09;;;;;;;1.97;1.60;;;;;;;;;;5030470;28;20217;-61
2022/01/14 01:06:38;;;;;;;8.47;2.90;;;;;;;;;;5030322;28;20205;-61
2022/01/14 01:09:09;;;;;;;4.87;2.47;;;;;;;;;;5030377;28;20219;-61
2022/01/14 01:11:39;;;;;;;3.43;2.97;;;;;;;;;;5030297;28;20214;-62
2022/01/14 01:14:11;;;;;;;4.07;2.00;;;;;;;;;;5030004;28;20212;-61
2022/01/14 01:16:38;;;;;;;6.63;2.57;;;;;;;;;;5029360;28;20224;-61
2022/01/14 01:19:05;;;;;;;4.93;2.63;;;;;;;;;;5029004;28;20301;-61
2022/01/14 01:21:32;;;;;;;5.80;3.20;;;;;;;;;;5030099;28;20208;-61
2022/01/14 01:24:00;;;;;;;9.50;2.73;;;;;;;;;;5029325;28;20204;-61
2022/01/14 01:26:28;;;;;;;2.43;1.57;;;;;;;;;;5027852;28;20212;-61
2022/01/14 01:29:03;;;;;;;6.40;2.53;;;;;;;;;;5029337;28;20205;-61
2022/01/14 01:31:37;;;;;;;2.47;1.83;;;;;;;;;;5025235;28;20211;-61
2022/01/14 01:34:04;;;;;;;4.63;2.23;;;;;;;;;;5029426;28;20263;-61
2022/01/14 01:36:31;;;;;;;5.47;2.57;;;;;;;;;;5027948;28;20224;-61
2022/01/14 01:38:58;;;;;;;2.03;1.93;;;;;;;;;;5029691;28;20216;-60
2022/01/14 01:41:27;;;;;;;5.77;2.20;;;;;;;;;;5029560;28;20202;-61
2022/01/14 01:43:54;;;;;;;4.97;2.67;;;;;;;;;;5029631;28;20208;-61
2022/01/14 01:46:23;;;;;;;4.33;2.20;;;;;;;;;;5029267;28;20211;-60
2022/01/14 01:48:51;;;;;;;3.30;1.83;;;;;;;;;;5028980;28;20297;-61
2022/01/14 01:51:18;;;;;;;8.53;3.03;;;;;;;;;;5028860;28;20274;-61
2022/01/14 01:53:45;;;;;;;5.60;2.43;;;;;;;;;;5029319;28;20210;-61
2022/01/14 01:56:12;;;;;;;4.63;3.20;;;;;;;;;;5029039;28;20265;-61
2022/01/14 01:58:41;;;;;;;5.03;2.37;;;;;;;;;;5029139;28;20211;-61
2022/01/14 02:01:09;;;;;;;5.93;2.97;;;;;;;;;;5029010;28;20663;-61
2022/01/14 02:03:37;;;;;;;7.23;3.10;;;;;;;;;;5029163;28;20277;-61
2022/01/14 02:06:05;;;;;;;3.90;2.20;;;;;;;;;;5028448;28;20218;-61
2022/01/14 02:08:32;;;;;;;8.20;3.07;;;;;;;;;;5027896;28;20210;-61
2022/01/14 02:10:59;;;;;;;2.30;1.63;;;;;;;;;;5028271;28;20206;-61
2022/01/14 02:13:26;;;;;;;3.70;2.37;;;;;;;;;;5028891;28;20212;-60
2022/01/14 02:16:16;;;;;;;5.57;3.07;;;;;;;;;;5027926;28;20666;-61
2022/01/14 02:18:59;;;;;;;7.97;2.43;;;;;;;;;;5028563;28;20229;-61
2022/01/14 02:24:32;;;;;;;4.33;2.23;;;;;;;;;;5027196;28;20706;-61
2022/01/14 02:26:59;;;;;;;3.50;2.07;;;;;;;;;;5028631;28;20208;-61
2022/01/14 02:29:26;;;;;;;7.23;2.53;;;;;;;;;;5027832;28;20216;-61
2022/01/14 02:31:53;;;;;;;2.70;2.40;;;;;;;;;;5028303;28;20563;-61
2022/01/14 02:34:20;;;;;;;5.40;2.53;;;;;;;;;;5027567;28;20243;-61
2022/01/14 02:36:49;;;;;;;3.73;2.23;;;;;;;;;;5028201;28;20236;-61
2022/01/14 02:39:16;;;;;;;3.67;2.17;;;;;;;;;;5028285;28;20249;-61
2022/01/14 02:41:44;;;;;;;2.83;1.67;;;;;;;;;;5028680;28;20620;-60
2022/01/14 02:44:18;;;;;;;3.23;2.40;;;;;;;;;;5028694;28;20256;-60
2022/01/14 02:46:52;;;;;;;3.77;1.83;;;;;;;;;;5028658;28;20270;-60
2022/01/14 02:49:19;;;;;;;3.27;1.87;;;;;;;;;;5028202;28;20213;-60
2022/01/14 02:51:46;;;;;;;4.53;2.57;;;;;;;;;;5028345;28;20651;-60
2022/01/14 02:54:20;;;;;;;3.67;2.27;;;;;;;;;;5028935;28;20204;-60
2022/01/14 02:56:48;;;;;;;1.83;1.57;;;;;;;;;;5028091;28;20237;-61
2022/01/14 02:59:17;;;;;;;2.83;2.10;;;;;;;;;;5028457;28;20630;-61
2022/01/14 03:01:44;;;;;;;5.77;2.30;;;;;;;;;;5028372;28;20216;-60
2022/01/14 03:04:12;;;;;;;4.63;1.60;;;;;;;;;;5028507;28;20702;-61
2022/01/14 03:06:39;;;;;;;4.00;2.20;;;;;;;;;;5024242;28;20196;-60
2022/01/14 03:09:06;;;;;;;6.20;1.43;;;;;;;;;;5024139;28;20207;-61
2022/01/14 03:11:36;;;;;;;2.70;1.80;;;;;;;;;;5028266;28;20208;-61
2022/01/14 03:14:04;;;;;;;5.27;2.37;;;;;;;;;;5024125;28;20205;-61
2022/01/14 03:16:38;;;;;;;1.50;1.40;;;;;;;;;;5027864;28;20295;-61
2022/01/14 03:19:08;;;;;;;2.03;1.63;;;;;;;;;;5027605;28;20291;-60
2022/01/14 03:21:40;;;;;;;3.73;1.70;;;;;;;;;;5027996;28;20691;-61
2022/01/14 03:24:18;;;;;;;4.83;2.40;;;;;;;;;;5028144;28;20212;-61
2022/01/14 03:26:47;;;;;;;4.67;2.20;;;;;;;;;;5028560;28;20228;-61
2022/01/14 03:29:15;;;;;;;2.60;1.93;;;;;;;;;;5028168;28;20254;-61
2022/01/14 03:31:42;;;;;;;1.80;1.50;;;;;;;;;;5028176;28;20213;-60
2022/01/14 03:34:09;;;;;;;6.43;1.60;;;;;;;;;;5028000;28;20286;-61
2022/01/14 03:36:36;;;;;;;1.87;1.73;;;;;;;;;;5027727;28;20212;-61
2022/01/14 03:39:04;;;;;;;5.00;1.20;;;;;;;;;;5027256;28;20446;-61
2022/01/14 03:41:31;;;;;;;2.57;1.73;;;;;;;;;;5030033;28;20479;-61
2022/01/14 03:43:59;;;;;;;2.93;2.00;;;;;;;;;;5032185;28;20213;-61
2022/01/14 03:46:27;;;;;;;3.50;1.73;;;;;;;;;;5032143;28;20216;-61
2022/01/14 03:48:54;;;;;;;3.53;2.07;;;;;;;;;;5031925;28;20202;-61
2022/01/14 03:51:22;;;;;;;2.07;1.67;;;;;;;;;;5031480;28;20304;-61
2022/01/14 03:53:49;;;;;;;2.07;1.30;;;;;;;;;;5031608;28;20218;-61
2022/01/14 03:56:17;;;;;;;3.20;1.83;;;;;;;;;;5031652;28;20216;-61
2022/01/14 03:58:44;;;;;;;2.10;1.30;;;;;;;;;;5031410;28;20221;-61
2022/01/14 04:01:13;;;;;;;2.23;1.10;;;;;;;;;;5031178;28;20202;-61
2022/01/14 04:03:40;;;;;;;4.37;2.20;;;;;;;;;;5031437;28;20738;-61
2022/01/14 04:06:07;;;;;;;2.63;1.57;;;;;;;;;;5031011;28;20222;-61
2022/01/14 04:08:35;;;;;;;4.53;2.00;;;;;;;;;;5031340;28;20923;-61
2022/01/14 04:11:03;;;;;;;2.10;1.60;;;;;;;;;;5031249;28;20213;-61
2022/01/14 04:13:39;;;;;;;1.73;1.63;;;;;;;;;;5030766;28;20205;-60
2022/01/14 04:16:06;;;;;;;3.03;1.70;;;;;;;;;;5030888;28;20205;-61
2022/01/14 04:18:35;;;;;;;1.83;1.67;;;;;;;;;;5031086;28;20229;-61
2022/01/14 04:21:02;;;;;;;1.47;1.17;;;;;;;;;;5029723;28;20492;-61
2022/01/14 04:23:29;;;;;;;1.63;1.20;;;;;;;;;;5030627;28;20680;-61
2022/01/14 04:25:56;;;;;;;3.53;1.27;;;;;;;;;;5030872;28;20205;-61
2022/01/14 04:28:24;;;;;;;1.80;1.23;;;;;;;;;;5031498;28;20212;-61
2022/01/14 04:30:54;;;;;;;1.03;1.00;;;;;;;;;;5030278;28;20580;-61
2022/01/14 04:33:21;;;;;;;1.60;0.83;;;;;;;;;;5030471;28;20814;-62
2022/01/14 04:35:50;;;;;;;3.57;1.37;;;;;;;;;;5030401;28;20292;-62
2022/01/14 04:38:17;;;;;;;1.60;0.97;;;;;;;;;;5030457;28;20231;-61
2022/01/14 04:40:44;;;;;;;1.50;1.40;;;;;;;;;;5030595;28;20770;-61
2022/01/14 04:43:13;;;;;;;1.73;1.00;;;;;;;;;;5030443;28;20262;-61
2022/01/14 04:45:55;;;;;;;1.50;1.17;;;;;;;;;;5030640;28;20204;-61
2022/01/14 04:48:22;;;;;;;1.70;1.30;;;;;;;;;;5030474;28;20208;-61
2022/01/14 04:50:51;;;;;;;2.53;1.40;;;;;;;;;;5030032;28;20284;-61
2022/01/14 04:53:18;;;;;;;2.00;1.13;;;;;;;;;;5030489;28;20207;-61
2022/01/14 04:55:45;;;;;;;2.50;1.43;;;;;;;;;;5030049;28;20213;-61
2022/01/14 04:58:12;;;;;;;2.03;1.50;;;;;;;;;;5030275;28;20643;-61
2022/01/14 05:00:40;;;;;;;3.20;1.27;;;;;;;;;;5029637;28;20691;-61
2022/01/14 05:03:07;;;;;;;1.47;1.37;;;;;;;;;;5030181;28;20212;-61
2022/01/14 05:05:38;;;;;;;1.73;1.30;;;;;;;;;;5029730;28;20693;-62
2022/01/14 05:08:10;;;;;;;3.03;1.93;;;;;;;;;;5030284;28;20664;-61
2022/01/14 05:10:49;;;;;;;2.60;1.53;;;;;;;;;;5030473;28;20299;-61
2022/01/14 05:13:16;;;;;;;2.23;1.40;;;;;;;;;;5029890;28;20286;-61
2022/01/14 05:15:43;;;;;;;2.73;1.60;;;;;;;;;;5029129;28;20208;-61
2022/01/14 05:18:10;;;;;;;1.00;1.00;;;;;;;;;;5030224;28;20220;-61
2022/01/14 05:20:37;;;;;;;0.37;0.37;;;;;;;;;;5030295;28;20235;-62
2022/01/14 05:23:06;;;;;;;0.93;0.80;;;;;;;;;;5029220;28;20246;-61
2022/01/14 05:25:33;;;;;;;0.60;0.57;;;;;;;;;;5029568;28;20223;-61
2022/01/14 05:28:00;;;;;;;1.97;1.77;;;;;;;;;;5029367;28;20212;-61
2022/01/14 05:30:27;;;;;;;1.50;1.40;;;;;;;;;;5030307;28;20206;-61
2022/01/14 05:32:55;;;;;;;1.97;1.53;;;;;;;;;;5029780;28;20238;-61
2022/01/14 05:35:22;;;;;;;1.40;1.30;;;;;;;;;;5029986;28;20565;-61
2022/01/14 05:37:50;;;;;;;1.20;1.20;;;;;;;;;;5029106;28;20228;-61
2022/01/14 05:40:19;;;;;;;2.03;1.43;;;;;;;;;;5029955;28;20211;-61
2022/01/14 05:42:46;;;;;;;1.10;1.10;;;;;;;;;;5029948;28;20217;-61
2022/01/14 05:45:13;;;;;;;0.73;0.73;;;;;;;;;;5028809;28;20679;-61
2022/01/14 05:47:41;;;;;;;1.40;1.30;;;;;;;;;;5010492;28;20221;-61
2022/01/14 05:50:09;;;;;;;1.33;1.33;;;;;;;;;;5016789;28;20227;-61
2022/01/14 05:52:36;;;;;;;1.90;1.30;;;;;;;;;;5029825;28;20201;-61
2022/01/14 05:55:03;;;;;;;3.50;1.83;;;;;;;;;;5029241;28;20224;-61
2022/01/14 05:57:34;;;;;;;2.97;1.30;;;;;;;;;;5029606;28;20208;-61
2022/01/14 06:00:01;;;;;;;1.23;1.10;;;;;;;;;;5029285;28;20208;-61
2022/01/14 06:02:28;;;;;;;1.00;1.00;;;;;;;;;;5029072;28;20632;-61
2022/01/14 06:04:55;;;;;;;3.57;1.70;;;;;;;;;;5028086;28;20282;-61
2022/01/14 06:07:22;;;;;;;2.07;1.77;;;;;;;;;;5028804;28;20258;-61
2022/01/14 06:09:49;;;;;;;1.50;0.90;;;;;;;;;;5028405;28;20681;-60
2022/01/14 06:12:16;;;;;;;0.93;0.77;;;;;;;;;;5027274;28;20211;-61
2022/01/14 06:14:45;;;;;;;2.57;1.40;;;;;;;;;;5008079;28;20212;-61
2022/01/14 06:17:12;;;;;;;1.93;1.20;;;;;;;;;;5018962;28;20208;-59
2022/01/14 06:19:39;;;;;;;2.37;1.67;;;;;;;;;;5027584;28;20225;-60
2022/01/14 06:22:06;;;;;;;0.70;0.70;;;;;;;;;;5027674;28;20578;-59
2022/01/14 06:24:33;;;;;;;1.50;1.37;;;;;;;;;;5027872;28;20259;-60
2022/01/14 06:27:01;;;;;;;1.37;1.30;;;;;;;;;;5027509;28;20274;-59
2022/01/14 06:29:28;;;;;;;1.23;1.23;;;;;;;;;;5028199;28;20215;-63
2022/01/14 06:31:56;;;;;;;0.83;0.83;;;;;;;;;;5025976;28;20641;-62
2022/01/14 06:34:23;;;;;;;1.10;1.10;;;;;;;;;;5025315;28;20283;-62
2022/01/14 06:36:50;;;;;;;1.10;1.07;;;;;;;;;;5028152;28;20213;-61
2022/01/14 06:42:13;;;;;;;1.43;0.93;;;;;;;;;;5018173;28;20252;-59
2022/01/14 06:44:40;;;;;;;1.60;1.07;;;;;;;;;;5028247;28;20211;-59
2022/01/14 06:47:08;;;;;;;2.77;1.80;;;;;;;;;;5028485;28;20204;-59
2022/01/14 06:49:35;;;;;;;0.80;0.80;;;;;;;;;;5026801;28;20192;-60
2022/01/14 06:52:02;;;;;;;0.60;0.60;;;;;;;;;;5028173;28;20266;-62
2022/01/14 06:54:30;;;;;;;0.87;0.87;;;;;;;;;;5028528;28;20215;-62
2022/01/14 06:56:57;;;;;;;1.33;1.17;;;;;;;;;;5026637;28;20220;-62
2022/01/14 06:59:24;;;;;;;2.47;0.90;;;;;;;;;;5028502;28;20239;-59
2022/01/14 07:01:51;;;;;;;0.90;0.90;;;;;;;;;;5028435;28;20568;-60
2022/01/14 07:04:19;;;;;;;1.80;1.70;;;;;;;;;;5028486;28;20208;-60
2022/01/14 07:06:46;;;;;;;0.90;0.90;;;;;;;;;;5028514;28;20322;-60
2022/01/14 07:09:16;;;;;;;1.30;1.13;;;;;;;;;;5028441;28;20227;-62
2022/01/14 07:11:47;;;;;;;1.63;1.37;;;;;;;;;;5028473;28;20231;-61
2022/01/14 07:14:14;;;;;;;1.37;1.27;;;;;;;;;;5028538;28;20675;-61
2022/01/14 07:16:41;;;;;;;1.07;1.07;;;;;;;;;;5030616;28;20216;-60
2022/01/14 07:19:08;;;;;;;1.07;0.93;;;;;;;;;;5031541;28;20282;-61
2022/01/14 07:21:38;;;;;;;1.83;1.47;;;;;;;;;;5031977;28;20204;-61
2022/01/14 07:24:05;;;;;;;2.30;1.37;;;;;;;;;;5031609;28;20201;-61
2022/01/14 07:26:33;;;;;;;1.90;1.47;;;;;;;;;;5032016;28;20281;-61
2022/01/14 07:29:00;;;;;;;2.30;1.20;;;;;;;;;;5031884;28;20230;-61
2022/01/14 07:31:27;;;;;;;2.93;0.70;;;;;;;;;;5032138;28;20626;-61
2022/01/14 07:33:54;;;;;;;2.93;1.57;;;;;;;;;;5031796;28;20258;-61
2022/01/14 07:36:21;;;;;;;1.37;1.30;;;;;;;;;;5031614;28;20204;-61
2022/01/14 07:38:50;;;;;;;1.10;1.07;;;;;;;;;;5031623;28;20232;-61
2022/01/14 07:41:17;;;;;;;1.23;0.90;;;;;;;;;;5031678;28;20724;-61
2022/01/14 07:43:47;;;;;;;2.00;0.93;;;;;;;;;;5031884;28;20220;-62
2022/01/14 07:46:14;;;;;;;1.17;1.00;;;;;;;;;;5031001;28;20216;-62
2022/01/14 07:48:42;;;;;;;2.10;1.17;;;;;;;;;;5031717;28;20212;-61
2022/01/14 07:51:09;;;;;;;1.50;1.17;;;;;;;;;;5031341;28;20235;-62
2022/01/14 07:53:37;;;;;;;3.10;1.50;;;;;;;;;;5012548;28;20691;-62
2022/01/14 07:56:07;;;;;;;2.03;1.47;;;;;;;;;;5025783;28;20592;-62
2022/01/14 07:58:34;;;;;;;1.13;1.07;;;;;;;;;;5031248;28;20220;-62
2022/01/14 08:01:01;;;;;;;1.83;1.17;;;;;;;;;;5031568;28;20211;-62
2022/01/14 08:03:28;;;;;;;1.20;1.20;;;;;;;;;;5031483;28;20212;-61
2022/01/14 08:05:57;;;;;;;1.20;1.20;;;;;;;;;;5031582;28;20216;-62
2022/01/14 08:08:24;;;;;;;1.27;0.90;;;;;;;;;;5031327;28;20209;-62
2022/01/14 08:10:51;;;;;;;1.20;0.87;;;;;;;;;;5031528;28;20646;-62
2022/01/14 08:13:20;;;;;;;1.23;1.07;;;;;;;;;;5031275;28;20212;-61
2022/01/14 08:15:47;;;;;;;1.50;0.90;;;;;;;;;;5031267;28;20703;-61
2022/01/14 08:18:14;;;;;;;1.50;1.43;;;;;;;;;;5031313;28;20245;-61
2022/01/14 08:20:41;;;;;;;1.27;1.10;;;;;;;;;;5031230;28;20212;-62
2022/01/14 08:23:08;;;;;;;1.43;0.80;;;;;;;;;;5030884;28;20266;-61
2022/01/14 08:25:35;;;;;;;0.60;0.60;;;;;;;;;;5030564;28;20216;-61
2022/01/14 08:28:02;;;;;;;0.60;0.60;;;;;;;;;;5030327;28;20739;-61
2022/01/14 08:30:31;;;;;;;1.60;1.50;;;;;;;;;;5031057;28;20269;-62
2022/01/14 08:32:58;;;;;;;0.60;0.60;;;;;;;;;;5030590;28;20725;-62
2022/01/14 08:35:25;;;;;;;1.30;1.23;;;;;;;;;;5030815;28;20222;-62
2022/01/14 08:37:52;;;;;;;1.67;1.03;;;;;;;;;;5030442;28;20219;-62
2022/01/14 08:40:19;;;;;;;1.43;1.30;;;;;;;;;;5030640;28;20239;-62
2022/01/14 08:42:51;;;;;;;2.97;1.33;;;;;;;;;;5030634;28;20216;-61
2022/01/14 08:45:21;;;;;;;0.67;0.67;;;;;;;;;;5030694;28;20262;-61
2022/01/14 08:47:52;;;;;;;1.30;0.87;;;;;;;;;;5030667;28;20220;-63
2022/01/14 08:50:19;;;;;;;1.20;1.10;;;;;;;;;;5030477;28;20231;-62
2022/01/14 08:52:46;;;;;;;1.03;0.90;;;;;;;;;;5029946;28;20216;-61
2022/01/14 08:55:15;;;;;;;0.90;0.90;;;;;;;;;;5030593;28;20896;-62
2022/01/14 08:57:42;;;;;;;3.80;1.37;;;;;;;;;;5030737;28;20227;-61
2022/01/14 09:00:09;;;;;;;1.60;1.20;;;;;;;;;;5030229;28;20228;-62
2022/01/14 09:02:36;;;;;;;1.10;0.97;;;;;;;;;;5029601;28;20621;-62
2022/01/14 09:05:05;;;;;;;1.80;1.33;;;;;;;;;;5029395;28;20213;-62
2022/01/14 09:07:32;;;;;;;2.57;1.60;;;;;;;;;;5029102;28;20211;-62
2022/01/14 09:09:59;;;;;;;1.53;1.20;;;;;;;;;;5028965;28;20215;-62
2022/01/14 09:12:26;;;;;;;2.10;1.77;;;;;;;;;;5029620;28;20215;-62
2022/01/14 09:14:54;;;;;;;2.77;1.70;;;;;;;;;;5028784;28;20266;-62
2022/01/14 09:17:21;;;;;;;2.90;1.83;;;;;;;;;;5029276;28;20215;-62
2022/01/14 09:19:49;;;;;;;2.37;1.93;;;;;;;;;;5029118;28;20243;-61
2022/01/14 09:22:18;;;;;;;3.47;1.30;;;;;;;;;;5026232;28;20691;-63
2022/01/14 09:24:46;;;;;;;1.27;1.00;;;;;;;;;;5028866;28;20210;-63
2022/01/14 09:27:13;;;;;;;1.93;1.73;;;;;;;;;;5018754;28;20213;-63
2022/01/14 09:29:40;;;;;;;4.13;1.70;;;;;;;;;;5026934;28;20576;-64
2022/01/14 09:32:08;;;;;;;1.80;1.47;;;;;;;;;;5028815;28;20209;-63
2022/01/14 09:34:35;;;;;;;2.83;1.67;;;;;;;;;;5028699;28;20239;-63
2022/01/14 09:37:02;;;;;;;3.53;1.97;;;;;;;;;;5028734;28;20204;-67
2022/01/14 09:39:32;;;;;;;2.63;2.00;;;;;;;;;;5028327;28;20239;-63
2022/01/14 09:41:59;;;;;;;5.77;2.13;;;;;;;;;;5029012;28;20569;-62
2022/01/14 09:44:26;;;;;;;4.47;1.60;;;;;;;;;;5029608;28;20220;-62
2022/01/14 09:46:54;;;;;;;3.30;2.00;;;;;;;;;;5029288;28;20223;-62
2022/01/14 09:49:21;;;;;;;3.80;2.33;;;;;;;;;;5031772;28;20204;-62
2022/01/14 09:51:48;;;;;;;4.10;2.67;;;;;;;;;;5029297;28;20266;-62
2022/01/14 09:54:15;;;;;;;2.60;2.17;;;;;;;;;;5025367;28;20213;-64
2022/01/14 09:56:45;;;;;;;1.70;1.60;;;;;;;;;;5024792;28;20212;-62
2022/01/14 09:59:13;;;;;;;5.37;2.70;;;;;;;;;;5028559;28;20224;-61
2022/01/14 10:01:41;;;;;;;3.90;2.87;;;;;;;;;;5027403;28;20666;-61
2022/01/14 10:04:08;;;;;;;6.60;2.73;;;;;;;;;;5026936;28;20738;-62
2022/01/14 10:06:39;;;;;;;6.20;3.13;;;;;;;;;;5027956;28;20209;-62
2022/01/14 10:09:08;;;;;;;4.77;3.07;;;;;;;;;;5027226;28;20215;-62
2022/01/14 10:11:36;;;;;;;5.60;3.23;;;;;;;;;;5027965;28;20652;-63
2022/01/14 10:14:12;;;;;;;6.30;3.23;;;;;;;;;;5027872;28;20244;-66
2022/01/14 10:16:41;;;;;;;7.30;3.53;;;;;;;;;;5027168;28;20653;-62
2022/01/14 10:19:18;;;;;;;7.73;3.20;;;;;;;;;;5027744;28;20227;-60
2022/01/14 10:21:45;;;;;;;6.63;2.90;;;;;;;;;;5010498;28;20216;-61
2022/01/14 10:24:13;;;;;;;6.17;2.83;;;;;;;;;;5028389;28;20216;-61
2022/01/14 10:26:47;;;;;;;8.73;3.10;;;;;;;;;;5028462;28;20216;-61
2022/01/14 10:29:15;;;;;;;4.53;3.37;;;;;;;;;;5028484;28;20215;-61
2022/01/14 10:31:44;;;;;;;9.07;3.23;;;;;;;;;;5027458;28;20282;-62
2022/01/14 10:34:12;;;;;;;4.10;2.30;;;;;;;;;;5028025;28;20240;-62
2022/01/14 10:36:39;;;;;;;10.97;3.97;;;;;;;;;;5027906;28;20303;-62
2022/01/14 10:39:25;;;;;;;6.17;3.33;;;;;;;;;;5027526;28;20606;-63
2022/01/14 10:41:52;;;;;;;5.50;3.20;;;;;;;;;;5026471;28;20215;-62
2022/01/14 10:44:28;;;;;;;9.47;4.60;;;;;;;;;;5028092;28;20217;-62
2022/01/14 10:47:10;;;;;;;4.00;3.17;;;;;;;;;;5028076;28;20693;-62
2022/01/14 10:49:38;;;;;;;8.43;3.80;;;;;;;;;;5028452;28;20228;-63
2022/01/14 10:52:12;;;;;;;8.27;4.67;;;;;;;;;;5032262;28;20306;-62
2022/01/14 10:54:40;;;;;;;11.27;4.23;;;;;;;;;;5032182;28;20212;-61
2022/01/14 10:57:14;;;;;;;11.67;4.87;;;;;;;;;;5032138;28;20299;-63
2022/01/14 10:59:42;;;;;;;8.17;3.80;;;;;;;;;;5030447;28;20283;-62
2022/01/14 11:02:24;;;;;;;6.87;3.27;;;;;;;;;;5031949;28;20279;-61
2022/01/14 11:05:01;;;;;;;6.90;3.47;;;;;;;;;;5019370;28;20645;-62
2022/01/14 11:07:28;;;;;;;9.50;4.90;;;;;;;;;;5031881;28;20214;-62
2022/01/14 11:09:56;;;;;;;16.17;5.00;;;;;;;;;;5032281;28;20641;-62
2022/01/14 11:12:23;;;;;;;9.90;4.60;;;;;;;;;;5032143;28;20307;-62
2022/01/14 11:14:52;;;;;;;11.57;4.13;;;;;;;;;;5032425;28;20699;-61
2022/01/14 11:17:19;;;;;;;8.00;4.60;;;;;;;;;;5032331;28;20252;-62
2022/01/14 11:19:46;;;;;;;8.57;4.50;;;;;;;;;;5032543;28;20233;-62
2022/01/14 11:24:59;;;;;;;12.43;5.53;;;;;;;;;;5032394;28;20291;-62
2022/01/14 11:27:26;;;;;;;7.60;4.27;;;;;;;;;;5031953;28;20210;-62
2022/01/14 11:29:58;;;;;;;12.93;4.33;;;;;;;;;;5032082;28;20251;-63
2022/01/14 11:32:25;;;;;;;11.77;5.30;;;;;;;;;;5022329;28;20217;-62
2022/01/14 11:34:52;;;;;;;12.30;4.57;;;;;;;;;;5031223;28;20340;-62
2022/01/14 11:37:32;;;;;;;15.00;5.07;;;;;;;;;;5029984;28;20217;-62
2022/01/14 11:40:00;;;;;;;8.67;4.10;;;;;;;;;;5031678;28;20230;-62
2022/01/14 11:42:40;;;;;;;15.07;5.30;;;;;;;;;;5031509;28;20222;-62
2022/01/14 11:45:09;;;;;;;10.97;4.13;;;;;;;;;;5031645;28;20296;-62
2022/01/14 11:47:49;;;;;;;5.70;4.27;;;;;;;;;;5030851;28;20287;-63
2022/01/14 11:50:31;;;;;;;13.10;4.60;;;;;;;;;;5031492;28;20229;-62
2022/01/14 11:52:59;;;;;;;9.67;4.63;;;;;;;;;;5030499;28;20202;-62
2022/01/14 11:55:38;;;;;;;11.63;4.87;;;;;;;;;;5031512;28;20214;-63
2022/01/14 11:58:06;;;;;;;11.70;4.90;;;;;;;;;;5030299;28;20207;-62
2022/01/14 12:00:40;;;;;;;10.67;4.33;;;;;;;;;;5011376;28;20238;-62
2022/01/14 12:03:29;;;;;;;12.00;4.90;;;;;;;;;;5010577;28;20548;-63
2022/01/14 12:05:58;;;;;;;10.10;4.87;;;;;;;;;;5005689;28;20661;-62
2022/01/14 12:08:26;;;;;;;11.47;4.90;;;;;;;;;;5011562;28;20235;-62
2022/01/14 12:10:55;;;;;;;12.83;5.80;;;;;;;;;;5020167;28;20265;-62
2022/01/14 12:13:25;;;;;;;13.87;5.63;;;;;;;;;;5029008;28;20214;-61
2022/01/14 12:15:58;;;;;;;16.37;5.23;;;;;;;;;;5030283;28;20226;-62
2022/01/14 12:18:44;;;;;;;9.23;4.53;;;;;;;;;;5031240;28;20230;-61
2022/01/14 12:21:11;;;;;;;8.73;4.43;;;;;;;;;;5030489;28;20226;-62
2022/01/14 12:23:38;;;;;;;12.73;5.67;;;;;;;;;;5030913;28;20280;-62
2022/01/14 12:26:14;;;;;;;12.47;5.23;;;;;;;;;;5031262;28;20288;-62
2022/01/14 12:28:41;;;;;;;11.47;5.27;;;;;;;;;;5030798;28;20296;-63
2022/01/14 12:31:10;;;;;;;13.70;6.23;;;;;;;;;;5030797;28;20763;-63
2022/01/14 12:33:41;;;;;;;15.17;4.93;;;;;;;;;;5030919;28;20254;-62
2022/01/14 12:36:12;;;;;;;10.57;6.23;;;;;;;;;;5031101;28;20212;-63
2022/01/14 12:38:40;;;;;;;18.97;6.07;;;;;;;;;;5030845;28;20218;-62
2022/01/14 12:41:14;;;;;;;15.87;6.97;;;;;;;;;;5030735;28;20239;-63
2022/01/14 12:43:48;;;;;;;13.87;5.53;;;;;;;;;;5030919;28;20225;-63
2022/01/14 12:46:34;;;;;;;14.30;6.27;;;;;;;;;;5030530;28;20306;-62
2022/01/14 12:49:03;;;;;;;14.47;5.73;;;;;;;;;;5030761;28;20242;-61
2022/01/14 12:51:30;;;;;;;10.30;5.10;;;;;;;;;;5030599;28;20227;-61
2022/01/14 12:53:58;;;;;;;15.20;6.63;;;;;;;;;;5030489;28;20219;-61
2022/01/14 12:56:26;;;;;;;16.87;6.07;;;;;;;;;;5030638;28;20234;-63
2022/01/14 12:59:01;;;;;;;11.47;5.37;;;;;;;;;;5022871;28;20212;-61
2022/01/14 13:01:31;;;;;;;20.70;6.73;;;;;;;;;;5010430;28;20721;-61
2022/01/14 13:03:58;;;;;;;14.67;6.77;;;;;;;;;;5010890;28;20269;-61
2022/01/14 13:06:25;;;;;;;11.40;6.03;;;;;;;;;;5010585;28;20713;-61
2022/01/14 13:08:59;;;;;;;20.17;7.40;;;;;;;;;;5010537;28;20216;-63
2022/01/14 13:11:26;;;;;;;14.63;6.67;;;;;;;;;;5010767;28;20209;-61
2022/01/14 13:14:00;;;;;;;18.40;7.03;;;;;;;;;;5009326;28;20273;-61
2022/01/14 13:16:27;;;;;;;16.27;5.67;;;;;;;;;;5019942;28;20223;-61
2022/01/14 13:18:56;;;;;;;22.83;8.17;;;;;;;;;;5030033;28;20306;-61
2022/01/14 13:21:23;;;;;;;14.83;7.57;;;;;;;;;;5029921;28;20236;-61
2022/01/14 13:23:51;;;;;;;21.17;7.00;;;;;;;;;;5030226;28;20713;-61
2022/01/14 13:26:18;;;;;;;19.70;6.93;;;;;;;;;;5029868;28;20219;-64
2022/01/14 13:28:48;;;;;;;17.87;7.70;;;;;;;;;;5010269;28;20273;-62
2022/01/14 13:31:16;;;;;;;15.93;5.90;;;;;;;;;;5018033;28;20564;-61
2022/01/14 13:33:43;;;;;;;15.63;6.13;;;;;;;;;;5028332;28;20655;-61
2022/01/14 13:36:12;;;;;;;13.47;6.40;;;;;;;;;;5027826;28;20272;-61
2022/01/14 13:38:39;;;;;;;15.17;6.20;;;;;;;;;;5028909;28;20261;-60
2022/01/14 13:41:06;;;;;;;12.10;5.73;;;;;;;;;;5028088;28;20869;-61
2022/01/14 13:43:36;;;;;;;10.00;6.17;;;;;;;;;;5029036;28;20207;-61
2022/01/14 13:46:06;;;;;;;14.30;6.30;;;;;;;;;;5028720;28;20210;-61
2022/01/14 13:48:40;;;;;;;14.87;6.30;;;;;;;;;;5028778;28;20276;-60
2022/01/14 13:51:08;;;;;;;15.53;6.50;;;;;;;;;;5024906;28;20727;-60
2022/01/14 13:53:37;;;;;;;7.73;5.30;;;;;;;;;;5028967;28;20656;-61
2022/01/14 13:56:05;;;;;;;12.20;4.77;;;;;;;;;;5028607;28;20269;-61
2022/01/14 13:58:32;;;;;;;11.77;6.07;;;;;;;;;;5027676;28;20867;-63
2022/01/14 14:01:04;;;;;;;14.83;7.90;;;;;;;;;;5025057;28;20234;-71
2022/01/14 14:03:38;;;;;;;11.67;5.70;;;;;;;;;;5028247;28;20211;-61
2022/01/14 14:06:08;;;;;;;11.90;4.00;;;;;;;;;;5026953;28;20222;-62
2022/01/14 14:08:51;;;;;;;7.63;4.93;;;;;;;;;;5028207;28;20215;-62
2022/01/14 14:16:55;;;;;;;12.90;5.37;;;;;;;;;;5027589;28;20277;-68
2022/01/14 14:19:23;;;;;;;15.13;5.70;;;;;;;;;;5027037;28;20263;-65
2022/01/14 14:22:09;;;;;;;10.13;4.78;;;;;;;;;;5027933;28;20096;-64
2022/01/14 14:24:37;;;;;;;7.47;4.30;;;;;;;;;;5026535;28;20205;-65
2022/01/14 14:27:15;;;;;;;9.80;5.07;;;;;;;;;;5027893;28;20605;-66
2022/01/14 14:29:47;;;;;;;10.20;5.47;;;;;;;;;;5027163;28;20591;-61
2022/01/14 14:32:18;;;;;;;11.13;5.50;;;;;;;;;;5026047;28;20202;-63
2022/01/14 14:34:45;;;;;;;15.60;5.87;;;;;;;;;;5027569;28;20276;-63
2022/01/14 14:37:13;;;;;;;10.87;5.07;;;;;;;;;;5028361;28;20214;-63
2022/01/14 14:39:42;;;;;;;13.67;5.03;;;;;;;;;;5027958;28;20204;-63
2022/01/14 14:42:09;;;;;;;10.93;4.57;;;;;;;;;;5026913;28;20230;-63
2022/01/14 14:44:36;;;;;;;9.43;5.17;;;;;;;;;;5025989;28;20214;-65
2022/01/14 14:47:04;;;;;;;9.27;3.53;;;;;;;;;;5026452;28;20215;-65
2022/01/14 14:49:31;;;;;;;10.57;5.43;;;;;;;;;;5026201;28;20212;-64
2022/01/14 14:51:58;;;;;;;7.50;4.77;;;;;;;;;;5026243;28;20209;-62
2022/01/14 14:54:25;;;;;;;7.43;4.20;;;;;;;;;;5026603;28;20680;-64
2022/01/14 14:56:54;;;;;;;7.93;4.73;;;;;;;;;;5024699;28;20262;-63
2022/01/14 14:59:21;;;;;;;1.10;1.03;;;;;;;;;;5025872;28;20737;-63
2022/01/14 15:01:48;;;;;;;4.67;3.77;;;;;;;;;;5024396;28;20652;-62
2022/01/14 15:04:15;;;;;;;10.53;4.97;;;;;;;;;;5024717;28;20202;-62
2022/01/14 15:06:42;;;;;;;9.13;4.30;;;;;;;;;;5024472;28;20243;-62
2022/01/14 15:09:09;;;;;;;8.00;4.27;;;;;;;;;;5025983;28;20200;-62
2022/01/14 15:11:37;;;;;;;15.77;6.33;;;;;;;;;;5026186;28;20192;-62